createdAt,value
2022-09-02T00:01:17.174Z,8.07
2022-09-02T00:04:23.010Z,6.00
2022-09-02T00:07:24.961Z,5.57
2022-09-02T00:10:27.059Z,5.40
2022-09-02T00:13:30.108Z,6.82
2022-09-02T00:16:33.519Z,5.32
2022-09-02T00:19:36.273Z,5.35
2022-09-02T00:22:38.627Z,6.45
2022-09-02T00:25:40.871Z,6.00
2022-09-02T00:28:49.001Z,7.20
2022-09-02T00:31:54.514Z,7.35
2022-09-02T00:34:58.121Z,7.35
2022-09-02T00:38:01.018Z,8.23
2022-09-02T00:41:06.910Z,8.27
2022-09-02T00:44:12.790Z,8.80
2022-09-02T00:47:15.609Z,6.22
2022-09-02T00:53:21.675Z,9.20
2022-09-02T00:56:28.328Z,6.45
2022-09-02T00:59:45.630Z,6.72
2022-09-02T01:02:52.811Z,7.20
2022-09-02T01:05:57.258Z,8.48
2022-09-02T01:09:08.628Z,6.07
2022-09-02T01:12:12.803Z,8.50
2022-09-02T01:15:15.615Z,7.90
2022-09-02T01:21:23.798Z,7.93
2022-09-02T01:27:30.143Z,8.07
2022-09-02T01:30:33.993Z,5.40
2022-09-02T01:33:35.980Z,6.55
2022-09-02T01:36:40.497Z,6.37
2022-09-02T01:39:43.094Z,6.03
2022-09-02T01:42:47.326Z,6.65
2022-09-02T01:45:53.508Z,5.57
2022-09-02T01:48:57.167Z,9.35
2022-09-02T01:51:59.138Z,7.87
2022-09-02T01:55:01.111Z,8.77
2022-09-02T01:58:04.316Z,8.90
2022-09-02T02:01:08.062Z,6.07
2022-09-02T02:04:13.532Z,6.25
2022-09-02T02:07:20.443Z,7.93
2022-09-02T02:10:23.070Z,6.60
2022-09-02T02:13:25.327Z,8.35
2022-09-02T02:16:28.146Z,6.05
2022-09-02T02:19:30.211Z,7.80
2022-09-02T02:22:34.459Z,6.85
2022-09-02T02:25:36.440Z,8.50
2022-09-02T02:28:38.661Z,6.30
2022-09-02T02:31:42.131Z,10.07
2022-09-02T02:34:46.885Z,6.88
2022-09-02T02:37:50.899Z,8.90
2022-09-02T02:40:57.719Z,7.35
2022-09-02T02:44:00.676Z,7.20
2022-09-02T02:47:03.497Z,8.07
2022-09-02T02:50:09.841Z,5.70
2022-09-02T02:53:13.383Z,5.97
2022-09-02T02:56:17.311Z,6.18
2022-09-02T02:59:19.387Z,6.65
2022-09-02T03:02:21.849Z,35.83
2022-09-02T03:05:24.613Z,30.27
2022-09-02T03:11:29.597Z,12.65
2022-09-02T03:14:33.095Z,9.68
2022-09-02T03:20:39.179Z,7.50
2022-09-02T03:23:43.951Z,8.55
2022-09-02T03:26:45.909Z,10.50
2022-09-02T03:29:48.158Z,6.97
2022-09-02T03:32:50.892Z,7.82
2022-09-02T03:38:55.843Z,12.07
2022-09-02T03:41:57.923Z,8.05
2022-09-02T03:45:02.010Z,9.68
2022-09-02T03:48:04.689Z,7.72
2022-09-02T03:51:11.916Z,6.55
2022-09-02T03:54:13.951Z,6.97
2022-09-02T03:57:17.443Z,6.65
2022-09-02T04:00:24.082Z,5.68
2022-09-02T04:03:26.802Z,9.15
2022-09-02T04:06:32.723Z,6.38
2022-09-02T04:09:36.338Z,7.05
2022-09-02T04:12:39.975Z,5.97
2022-09-02T04:15:45.021Z,6.32
2022-09-02T04:18:47.304Z,9.57
2022-09-02T04:21:49.307Z,8.00
2022-09-02T04:24:52.502Z,6.47
2022-09-02T04:27:55.126Z,5.70
2022-09-02T04:34:00.630Z,4.50
2022-09-02T04:37:03.238Z,5.18
2022-09-02T04:40:05.922Z,5.55
2022-09-02T04:46:15.935Z,6.50
2022-09-02T04:49:19.485Z,5.38
2022-09-02T04:52:22.106Z,6.57
2022-09-02T04:55:24.535Z,4.57
2022-09-02T04:58:28.592Z,4.97
2022-09-02T05:01:34.287Z,4.03
2022-09-02T05:04:41.439Z,7.03
2022-09-02T05:07:56.367Z,4.15
2022-09-02T05:10:59.236Z,4.57
2022-09-02T05:14:04.609Z,4.80
2022-09-02T05:17:09.704Z,6.47
2022-09-02T05:20:15.287Z,5.00
2022-09-02T05:23:19.783Z,4.68
2022-09-02T05:26:22.790Z,5.60
2022-09-02T05:29:25.091Z,5.88
2022-09-02T05:32:28.896Z,5.07
2022-09-02T05:35:31.754Z,4.65
2022-09-02T05:38:36.842Z,6.07
2022-09-02T05:41:39.046Z,3.75
2022-09-02T05:44:45.170Z,4.10
2022-09-02T05:47:52.803Z,5.93
2022-09-02T05:50:57.602Z,6.40
2022-09-02T05:54:02.353Z,4.97
2022-09-02T05:57:09.367Z,4.32
2022-09-02T06:00:18.170Z,4.75
2022-09-02T06:03:31.508Z,7.18
2022-09-02T06:06:34.472Z,4.75
2022-09-02T06:09:36.657Z,4.82
2022-09-02T06:12:42.836Z,16.58
2022-09-02T06:15:45.940Z,5.13
2022-09-02T06:18:50.738Z,4.80
2022-09-02T06:21:54.288Z,10.85
2022-09-02T06:24:59.700Z,6.65
2022-09-02T06:28:06.887Z,2.78
2022-09-02T06:31:16.178Z,4.47
2022-09-02T06:34:24.072Z,4.70
2022-09-02T06:37:26.573Z,3.72
2022-09-02T06:40:30.820Z,3.45
2022-09-02T06:46:57.790Z,5.90
2022-09-02T06:50:01.631Z,4.35
2022-09-02T06:53:07.198Z,2.90
2022-09-02T06:56:11.172Z,5.15
2022-09-02T06:59:15.784Z,5.80
2022-09-02T07:02:21.103Z,3.30
2022-09-02T07:05:23.834Z,3.33
2022-09-02T07:08:27.246Z,5.57
2022-09-02T07:11:29.503Z,3.83
2022-09-02T07:14:36.175Z,14.25
2022-09-02T07:17:41.760Z,5.40
2022-09-02T07:20:48.185Z,5.57
2022-09-02T07:23:53.635Z,5.93
2022-09-02T07:26:56.921Z,4.03
2022-09-02T07:30:00.457Z,9.82
2022-09-02T07:33:05.936Z,8.55
2022-09-02T07:36:10.987Z,4.30
2022-09-02T07:39:19.436Z,3.38
2022-09-02T07:42:22.582Z,7.55
2022-09-02T07:45:24.798Z,16.00
2022-09-02T07:48:28.176Z,5.97
2022-09-02T07:51:31.236Z,3.58
2022-09-02T07:54:35.423Z,23.80
2022-09-02T07:57:40.402Z,3.63
2022-09-02T08:00:44.255Z,5.10
2022-09-02T08:03:46.767Z,2.97
2022-09-02T08:06:50.729Z,6.25
2022-09-02T08:09:53.042Z,6.90
2022-09-02T08:15:57.122Z,5.03
2022-09-02T08:18:59.158Z,3.63
2022-09-02T08:22:06.424Z,5.07
2022-09-02T08:25:09.371Z,3.08
2022-09-02T08:28:12.091Z,27.75
2022-09-02T08:31:14.149Z,5.00
2022-09-02T08:34:16.764Z,4.43
2022-09-02T08:37:19.331Z,3.22
2022-09-02T08:40:23.643Z,5.60
2022-09-02T08:43:40.335Z,7.25
2022-09-02T08:46:43.065Z,3.00
2022-09-02T08:49:50.866Z,6.03
2022-09-02T08:53:14.797Z,19.60
2022-09-02T08:56:18.611Z,7.88
2022-09-02T08:59:27.951Z,3.40
2022-09-02T09:02:58.334Z,2.63
2022-09-02T09:06:23.668Z,3.90
2022-09-02T09:10:06.843Z,3.63
2022-09-02T09:13:20.665Z,3.40
2022-09-02T09:16:50.438Z,3.67
2022-09-02T09:19:55.530Z,8.05
2022-09-02T09:23:01.905Z,4.78
2022-09-02T09:26:09.011Z,2.05
2022-09-02T09:29:11.016Z,4.32
2022-09-02T09:32:28.069Z,3.10
2022-09-02T09:35:50.019Z,4.90
2022-09-02T09:38:51.962Z,7.20
2022-09-02T09:42:12.434Z,6.22
2022-09-02T09:45:27.737Z,9.13
2022-09-02T09:48:29.682Z,9.27
2022-09-02T09:51:40.130Z,4.68
2022-09-02T09:55:13.093Z,3.38
2022-09-02T09:58:15.071Z,2.58
2022-09-02T10:01:34.015Z,5.65
2022-09-02T10:04:43.991Z,2.80
2022-09-02T10:08:04.701Z,2.50
2022-09-02T10:11:22.777Z,19.13
2022-09-02T10:18:05.772Z,2.97
2022-09-02T10:21:46.939Z,5.43
2022-09-02T10:25:07.883Z,3.38
2022-09-02T10:28:22.183Z,4.72
2022-09-02T10:31:58.783Z,6.18
2022-09-02T10:35:13.945Z,7.47
2022-09-02T10:38:45.091Z,3.72
2022-09-02T10:41:47.717Z,3.35
2022-09-02T10:45:07.020Z,4.35
2022-09-02T10:48:21.556Z,3.25
2022-09-02T10:51:54.447Z,2.50
2022-09-02T10:55:05.377Z,2.42
2022-09-02T10:58:48.770Z,4.40
2022-09-02T11:02:00.565Z,8.65
2022-09-02T11:05:09.791Z,6.68
2022-09-02T11:08:35.567Z,6.97
2022-09-02T11:12:03.568Z,5.43
2022-09-02T11:15:20.335Z,3.75
2022-09-02T11:18:33.845Z,4.35
2022-09-02T11:21:43.039Z,31.65
2022-09-02T11:24:53.949Z,29.08
2022-09-02T11:28:16.549Z,5.30
2022-09-02T11:31:39.185Z,3.05
2022-09-02T11:34:50.877Z,5.85
2022-09-02T11:37:58.942Z,4.27
2022-09-02T11:44:39.183Z,4.53
2022-09-02T11:48:15.316Z,5.22
2022-09-02T11:51:45.631Z,3.38
2022-09-02T11:55:07.032Z,3.20
2022-09-02T11:58:09.257Z,22.38
2022-09-02T12:01:54.597Z,8.30
2022-09-02T12:05:32.152Z,3.92
2022-09-02T12:08:36.526Z,2.65
2022-09-02T12:11:46.967Z,5.15
2022-09-02T12:14:48.882Z,3.17
2022-09-02T12:17:51.393Z,4.93
2022-09-02T12:20:59.613Z,4.15
2022-09-02T12:24:05.439Z,4.35
2022-09-02T12:27:09.675Z,2.90
2022-09-02T12:30:13.439Z,2.47
2022-09-02T12:33:30.275Z,2.63
2022-09-02T12:36:42.642Z,2.47
2022-09-02T12:39:55.042Z,5.85
2022-09-02T12:43:02.570Z,1.40
2022-09-02T12:46:36.975Z,2.38
2022-09-02T12:49:46.733Z,3.47
2022-09-02T12:52:50.846Z,3.75
2022-09-02T12:56:13.473Z,3.60
2022-09-02T12:59:37.889Z,23.95
2022-09-02T13:03:00.236Z,3.08
2022-09-02T13:06:18.369Z,3.25
2022-09-02T13:10:01.671Z,5.28
2022-09-02T13:13:22.128Z,2.05
2022-09-02T13:16:43.568Z,2.05
2022-09-02T13:20:24.630Z,2.25
2022-09-02T13:23:51.573Z,2.85
2022-09-02T13:27:02.315Z,6.68
2022-09-02T13:30:33.418Z,1.90
2022-09-02T13:33:42.490Z,4.90
2022-09-02T13:36:47.563Z,3.03
2022-09-02T13:39:49.556Z,3.78
2022-09-02T13:42:54.382Z,3.15
2022-09-02T13:46:01.980Z,3.20
2022-09-02T13:49:03.934Z,5.13
2022-09-02T13:52:11.949Z,3.95
2022-09-02T13:55:20.699Z,2.80
2022-09-02T13:58:36.046Z,9.15
2022-09-02T14:01:40.340Z,2.60
2022-09-02T14:04:42.746Z,2.90
2022-09-02T14:10:54.381Z,2.90
2022-09-02T14:13:58.871Z,4.35
2022-09-02T14:17:21.501Z,12.32
2022-09-02T14:20:23.696Z,4.43
2022-09-02T14:26:43.306Z,2.53
2022-09-02T14:29:47.496Z,4.03
2022-09-02T14:33:22.408Z,4.78
2022-09-02T14:36:24.257Z,9.93
2022-09-02T14:39:26.438Z,7.88
2022-09-02T14:45:35.754Z,5.15
2022-09-02T14:48:39.099Z,4.50
2022-09-02T14:51:47.228Z,4.00
2022-09-02T14:54:51.950Z,14.40
2022-09-02T14:58:04.232Z,14.00
2022-09-02T15:01:08.767Z,7.22
2022-09-02T15:04:10.837Z,5.75
2022-09-02T15:07:16.562Z,7.60
2022-09-02T15:10:18.756Z,5.85
2022-09-02T15:16:34.609Z,3.90
2022-09-02T15:19:36.526Z,4.82
2022-09-02T15:22:38.901Z,43.33
2022-09-02T15:25:40.862Z,7.75
2022-09-02T15:28:44.526Z,9.90
2022-09-02T15:31:46.441Z,32.33
2022-09-02T15:34:48.464Z,5.47
2022-09-02T15:37:50.742Z,13.30
2022-09-02T15:43:54.793Z,7.03
2022-09-02T15:46:56.954Z,13.13
2022-09-02T15:49:59.001Z,9.45
2022-09-02T15:53:01.040Z,31.73
2022-09-02T15:56:04.233Z,6.38
2022-09-02T15:59:14.394Z,6.30
2022-09-02T16:02:16.454Z,61.17
2022-09-02T16:05:19.125Z,18.30
2022-09-02T16:08:21.090Z,24.42
2022-09-02T16:11:23.988Z,11.98
2022-09-02T16:14:26.380Z,169.05
2022-09-02T16:20:30.702Z,91.53
2022-09-02T16:23:34.111Z,63.65
2022-09-02T16:26:38.838Z,33.05
2022-09-02T16:29:41.820Z,19.38
2022-09-02T16:32:43.786Z,11.68
2022-09-02T16:35:45.749Z,10.35
2022-09-02T16:38:47.778Z,11.50
2022-09-02T16:41:53.303Z,9.82
2022-09-02T16:44:55.246Z,87.53
2022-09-02T16:47:57.851Z,70.68
2022-09-02T16:51:04.387Z,50.03
2022-09-02T16:54:07.867Z,37.20
2022-09-02T16:57:10.340Z,70.30
2022-09-02T17:03:14.416Z,108.73
2022-09-02T17:06:16.948Z,87.93
2022-09-02T17:12:22.276Z,64.18
2022-09-02T17:15:26.132Z,42.55
2022-09-02T17:18:28.269Z,14.60
2022-09-02T17:21:50.964Z,29.95
2022-09-02T17:24:53.842Z,22.35
2022-09-02T17:27:56.447Z,10.73
2022-09-02T17:30:59.509Z,10.75
2022-09-02T17:34:04.086Z,9.75
2022-09-02T17:37:06.496Z,9.75
2022-09-02T17:40:33.173Z,12.23
2022-09-02T17:43:38.447Z,15.00
2022-09-02T17:46:41.113Z,12.18
2022-09-02T17:52:47.047Z,10.95
2022-09-02T17:55:54.948Z,13.30
2022-09-02T17:59:03.050Z,12.45
2022-09-02T18:02:22.033Z,11.65
2022-09-02T18:05:39.190Z,12.68
2022-09-02T18:09:02.415Z,13.50
2022-09-02T18:12:09.715Z,14.30
2022-09-02T18:15:18.705Z,16.63
2022-09-02T18:18:23.426Z,12.38
2022-09-02T18:21:41.787Z,32.03
2022-09-02T18:25:24.097Z,47.65
2022-09-02T18:28:55.326Z,15.88
2022-09-02T18:32:06.991Z,13.55
2022-09-02T18:35:28.498Z,9.77
2022-09-02T18:38:52.094Z,11.77
2022-09-02T18:42:19.425Z,21.83
2022-09-02T18:45:28.438Z,21.52
2022-09-02T18:48:36.221Z,52.00
2022-09-02T18:51:42.409Z,91.85
2022-09-02T18:54:51.302Z,29.00
2022-09-02T18:57:57.308Z,21.52
2022-09-02T19:01:09.932Z,24.77
2022-09-02T19:04:13.285Z,70.95
2022-09-02T19:07:38.285Z,32.88
2022-09-02T19:10:40.189Z,20.02
2022-09-02T19:13:53.615Z,13.65
2022-09-02T19:17:00.092Z,9.57
2022-09-02T19:20:04.431Z,6.55
2022-09-02T19:23:14.167Z,6.00
2022-09-02T19:26:18.889Z,7.57
2022-09-02T19:29:25.390Z,6.40
2022-09-02T19:32:33.458Z,7.00
2022-09-02T19:35:38.323Z,6.90
2022-09-02T19:38:41.238Z,5.70
2022-09-02T19:41:43.874Z,4.47
2022-09-02T19:44:45.804Z,5.55
2022-09-02T19:48:06.410Z,6.13
2022-09-02T19:51:13.175Z,7.10
2022-09-02T19:54:18.690Z,6.65
2022-09-02T19:57:21.245Z,5.70
2022-09-02T20:00:23.167Z,6.65
2022-09-02T20:03:25.551Z,6.32
2022-09-02T20:06:27.483Z,6.75
2022-09-02T20:09:29.628Z,3.42
2022-09-02T20:12:38.305Z,6.07
2022-09-02T20:15:40.285Z,5.82
2022-09-02T20:18:46.328Z,3.70
2022-09-02T20:21:49.413Z,4.50
2022-09-02T20:24:51.396Z,3.90
2022-09-02T20:28:06.149Z,6.45
2022-09-02T20:31:45.926Z,4.38
2022-09-02T20:35:03.425Z,4.97
2022-09-02T20:38:32.673Z,2.92
2022-09-02T20:41:55.283Z,5.38
2022-09-02T20:45:05.685Z,5.30
2022-09-02T20:48:35.199Z,3.40
2022-09-02T20:52:05.089Z,3.60
2022-09-02T20:55:17.607Z,3.63
2022-09-02T20:58:44.507Z,4.25
2022-09-02T21:01:48.952Z,3.95
2022-09-02T21:04:55.839Z,4.85
2022-09-02T21:08:06.450Z,4.53
2022-09-02T21:11:13.172Z,15.75
2022-09-02T21:14:23.544Z,7.55
2022-09-02T21:17:43.256Z,4.60
2022-09-02T21:21:10.030Z,4.22
2022-09-02T21:24:51.328Z,5.10
2022-09-02T21:28:04.571Z,3.95
2022-09-02T21:31:23.546Z,4.65
2022-09-02T21:34:34.974Z,4.95
2022-09-02T21:37:40.299Z,4.95
2022-09-02T21:41:13.297Z,4.15
2022-09-02T21:44:38.449Z,6.32
2022-09-02T21:48:07.155Z,7.03
2022-09-02T21:51:24.682Z,4.47
2022-09-02T21:54:46.850Z,4.45
2022-09-02T21:58:13.587Z,6.18
2022-09-02T22:01:42.199Z,4.50
2022-09-02T22:05:02.788Z,4.00
2022-09-02T22:08:17.082Z,5.45
2022-09-02T22:11:40.450Z,3.92
2022-09-02T22:14:48.275Z,3.63
2022-09-02T22:17:55.608Z,7.63
2022-09-02T22:21:01.533Z,6.53
2022-09-02T22:24:04.082Z,5.72
2022-09-02T22:27:06.524Z,6.15
2022-09-02T22:30:14.654Z,5.07
2022-09-02T22:33:21.246Z,4.10
2022-09-02T22:36:35.089Z,5.35
2022-09-02T22:39:50.813Z,4.10
2022-09-02T22:42:58.665Z,4.32
2022-09-02T22:46:44.844Z,5.60
2022-09-02T22:50:19.441Z,5.93
2022-09-02T22:53:21.350Z,5.22
2022-09-02T22:56:42.433Z,5.73
2022-09-02T22:59:52.896Z,4.90
2022-09-02T23:03:17.054Z,5.20
2022-09-02T23:06:28.305Z,5.25
2022-09-02T23:09:32.424Z,5.15
2022-09-02T23:12:43.915Z,5.85
2022-09-02T23:15:59.029Z,5.60
2022-09-02T23:19:16.078Z,3.67
2022-09-02T23:22:34.270Z,5.30
2022-09-02T23:26:10.113Z,5.88
2022-09-02T23:29:16.130Z,6.03
2022-09-02T23:32:43.523Z,8.10
2022-09-02T23:36:35.329Z,5.03
2022-09-02T23:39:46.356Z,4.47
2022-09-02T23:42:49.685Z,6.00
2022-09-02T23:45:56.862Z,4.15
2022-09-02T23:49:10.660Z,5.80
2022-09-02T23:52:26.537Z,5.32
2022-09-02T23:56:05.317Z,7.47
2022-09-02T23:59:50.562Z,4.25
